createdAt,value
2023-04-02T00:00:29.786Z,213.64
2023-04-02T00:01:29.812Z,208.70
2023-04-02T00:02:29.926Z,203.80
2023-04-02T00:03:29.931Z,209.64
2023-04-02T00:04:29.895Z,204.73
2023-04-02T00:05:29.953Z,203.87
2023-04-02T00:06:29.972Z,202.36
2023-04-02T00:07:29.999Z,200.27
2023-04-02T00:08:30.026Z,193.02
2023-04-02T00:09:30.055Z,190.83
2023-04-02T00:10:30.101Z,185.35
2023-04-02T00:11:30.133Z,187.79
2023-04-02T00:12:30.160Z,192.62
2023-04-02T00:13:30.184Z,203.89
2023-04-02T00:14:30.228Z,210.86
2023-04-02T00:15:30.252Z,218.21
2023-04-02T00:16:30.332Z,217.55
2023-04-02T00:17:30.319Z,220.97
2023-04-02T00:18:30.403Z,218.34
2023-04-02T00:19:30.391Z,219.23
2023-04-02T00:20:30.401Z,214.59
2023-04-02T00:21:30.440Z,214.18
2023-04-02T00:22:30.455Z,212.41
2023-04-02T00:23:30.536Z,211.91
2023-04-02T00:24:30.521Z,214.81
2023-04-02T00:25:30.560Z,206.57
2023-04-02T00:26:30.573Z,208.16
2023-04-02T00:27:30.621Z,213.08
2023-04-02T00:28:30.648Z,220.00
2023-04-02T00:29:30.673Z,219.17
2023-04-02T00:30:30.702Z,217.20
2023-04-02T00:31:30.755Z,222.38
2023-04-02T00:32:30.765Z,217.48
2023-04-02T00:33:30.778Z,215.76
2023-04-02T00:34:30.834Z,210.24
2023-04-02T00:35:30.842Z,206.78
2023-04-02T00:36:30.908Z,204.92
2023-04-02T00:37:30.907Z,218.31
2023-04-02T00:38:30.932Z,226.32
2023-04-02T00:39:30.972Z,231.30
2023-04-02T00:40:31.012Z,232.80
2023-04-02T00:41:31.029Z,227.73
2023-04-02T00:42:31.064Z,231.50
2023-04-02T00:43:31.070Z,235.54
2023-04-02T00:44:31.098Z,236.67
2023-04-02T00:45:31.197Z,238.98
2023-04-02T00:46:31.201Z,243.21
2023-04-02T00:47:31.240Z,247.99
2023-04-02T00:48:31.218Z,250.00
2023-04-02T00:49:31.235Z,248.84
2023-04-02T00:50:31.268Z,245.36
2023-04-02T00:51:31.285Z,249.68
2023-04-02T00:52:31.316Z,248.58
2023-04-02T00:53:31.342Z,243.54
2023-04-02T00:54:31.377Z,245.97
2023-04-02T00:55:31.400Z,245.10
2023-04-02T00:56:31.481Z,244.07
2023-04-02T00:57:31.538Z,244.97
2023-04-02T00:58:31.496Z,241.56
2023-04-02T00:59:31.523Z,245.19
2023-04-02T01:00:31.556Z,246.53
2023-04-02T01:01:31.652Z,239.65
2023-04-02T01:02:31.669Z,232.56
2023-04-02T01:03:31.771Z,230.03
2023-04-02T01:04:31.712Z,226.23
2023-04-02T01:05:31.696Z,224.74
2023-04-02T01:06:31.741Z,225.36
2023-04-02T01:07:31.754Z,224.28
2023-04-02T01:08:31.764Z,228.95
2023-04-02T01:09:31.813Z,229.69
2023-04-02T01:10:31.822Z,225.63
2023-04-02T01:11:31.855Z,229.96
2023-04-02T01:12:31.880Z,228.88
2023-04-02T01:13:31.939Z,235.71
2023-04-02T01:14:31.961Z,236.24
2023-04-02T01:15:32.014Z,242.12
2023-04-02T01:16:32.077Z,243.48
2023-04-02T01:17:32.058Z,241.62
2023-04-02T01:18:32.080Z,245.25
2023-04-02T01:19:32.147Z,242.41
2023-04-02T01:20:32.133Z,246.04
2023-04-02T01:21:32.151Z,240.72
2023-04-02T01:22:32.192Z,241.99
2023-04-02T01:23:32.216Z,241.49
2023-04-02T01:24:32.273Z,240.19
2023-04-02T01:25:32.321Z,239.57
2023-04-02T01:26:32.303Z,238.38
2023-04-02T01:27:32.348Z,239.71
2023-04-02T01:28:32.367Z,244.41
2023-04-02T01:29:32.405Z,242.30
2023-04-02T01:30:32.428Z,239.89
2023-04-02T01:31:32.496Z,242.63
2023-04-02T01:32:32.525Z,234.48
2023-04-02T01:33:32.538Z,236.47
2023-04-02T01:34:32.549Z,237.62
2023-04-02T01:35:32.887Z,237.53
2023-04-02T01:36:32.657Z,239.00
2023-04-02T01:37:32.674Z,234.21
2023-04-02T01:38:32.702Z,234.00
2023-04-02T01:39:32.731Z,226.40
2023-04-02T01:40:32.754Z,231.02
2023-04-02T01:41:32.781Z,236.78
2023-04-02T01:42:32.818Z,241.76
2023-04-02T01:43:32.863Z,241.41
2023-04-02T01:44:32.895Z,245.27
2023-04-02T01:45:33.176Z,248.21
2023-04-02T01:46:32.978Z,242.39
2023-04-02T01:47:33.061Z,239.23
2023-04-02T01:48:33.017Z,238.92
2023-04-02T01:49:33.052Z,236.76
2023-04-02T01:50:33.106Z,244.97
2023-04-02T01:51:33.106Z,251.35
2023-04-02T01:52:33.141Z,250.00
2023-04-02T01:53:33.196Z,244.31
2023-04-02T01:54:33.229Z,243.01
2023-04-02T01:55:33.584Z,244.04
2023-04-02T01:56:33.307Z,236.70
2023-04-02T01:57:33.437Z,232.75
2023-04-02T01:58:33.340Z,231.45
2023-04-02T01:59:33.416Z,227.72
2023-04-02T02:00:33.482Z,228.49
2023-04-02T02:01:34.330Z,225.02
2023-04-02T02:02:33.526Z,230.07
2023-04-02T02:03:33.492Z,234.58
2023-04-02T02:04:33.542Z,229.54
2023-04-02T02:05:33.887Z,232.81
2023-04-02T02:06:33.588Z,223.14
2023-04-02T02:07:33.673Z,223.84
2023-04-02T02:08:33.652Z,225.16
2023-04-02T02:09:33.703Z,224.03
2023-04-02T02:10:33.738Z,222.80
2023-04-02T02:11:33.800Z,220.31
2023-04-02T02:12:33.797Z,218.07
2023-04-02T02:13:33.846Z,217.16
2023-04-02T02:14:33.862Z,215.35
2023-04-02T02:15:34.262Z,220.67
2023-04-02T02:16:33.955Z,222.93
2023-04-02T02:17:34.003Z,222.47
2023-04-02T02:18:34.003Z,223.99
2023-04-02T02:19:34.059Z,220.54
2023-04-02T02:20:34.047Z,216.28
2023-04-02T02:21:34.092Z,211.53
2023-04-02T02:22:34.107Z,206.40
2023-04-02T02:23:34.167Z,208.78
2023-04-02T02:24:34.177Z,210.88
2023-04-02T02:25:34.535Z,209.62
2023-04-02T02:26:34.247Z,213.27
2023-04-02T02:27:34.286Z,208.53
2023-04-02T02:28:34.299Z,207.74
2023-04-02T02:29:34.355Z,217.66
2023-04-02T02:30:34.391Z,231.82
2023-04-02T02:31:34.425Z,227.96
2023-04-02T02:32:34.463Z,224.18
2023-04-02T02:33:34.480Z,222.86
2023-04-02T02:34:34.496Z,220.47
2023-04-02T02:35:34.843Z,218.42
2023-04-02T02:36:34.564Z,225.05
2023-04-02T02:37:34.594Z,230.56
2023-04-02T02:38:34.650Z,232.76
2023-04-02T02:39:34.661Z,233.50
2023-04-02T02:40:34.706Z,230.60
2023-04-02T02:41:34.736Z,232.71
2023-04-02T02:42:34.749Z,234.04
2023-04-02T02:44:53.447Z,25.00
2023-04-02T02:45:53.451Z,25.00
2023-04-02T02:46:53.438Z,25.00
2023-04-02T02:47:53.475Z,25.00
2023-04-02T02:48:53.416Z,25.00
2023-04-02T02:49:53.416Z,30.20
2023-04-02T02:50:53.406Z,26.42
2023-04-02T02:51:53.403Z,26.53
2023-04-02T02:52:53.382Z,32.36
2023-04-02T02:53:53.376Z,29.29
2023-04-02T02:54:53.372Z,28.31
2023-04-02T02:55:53.365Z,27.56
2023-04-02T02:56:53.389Z,31.35
2023-04-02T02:57:53.386Z,28.39
2023-04-02T02:58:53.345Z,29.56
2023-04-02T02:59:53.334Z,25.00
2023-04-02T03:00:53.323Z,29.69
2023-04-02T03:01:53.345Z,25.00
2023-04-02T03:02:53.477Z,28.76
2023-04-02T03:03:53.413Z,26.06
2023-04-02T03:04:53.293Z,25.13
2023-04-02T03:05:53.302Z,22.92
2023-04-02T03:06:53.318Z,27.38
2023-04-02T03:07:53.284Z,31.74
2023-04-02T03:08:53.259Z,28.05
2023-04-02T03:09:53.258Z,32.63
2023-04-02T03:10:53.256Z,35.33
2023-04-02T03:11:53.235Z,33.07
2023-04-02T03:12:53.277Z,28.74
2023-04-02T03:13:53.218Z,31.98
2023-04-02T03:14:53.225Z,29.76
2023-04-02T03:15:53.260Z,33.57
2023-04-02T03:16:53.199Z,42.35
2023-04-02T03:17:53.258Z,43.79
2023-04-02T03:18:53.196Z,47.11
2023-04-02T03:19:53.179Z,49.27
2023-04-02T03:20:53.187Z,52.26
2023-04-02T03:21:53.174Z,49.40
2023-04-02T03:22:53.228Z,46.55
2023-04-02T03:23:53.172Z,50.88
2023-04-02T03:24:53.158Z,50.65
2023-04-02T03:25:53.164Z,44.77
2023-04-02T03:26:53.135Z,48.93
2023-04-02T03:27:53.150Z,46.84
2023-04-02T03:28:53.126Z,47.01
2023-04-02T03:29:53.128Z,46.85
2023-04-02T03:30:53.208Z,48.40
2023-04-02T03:31:53.187Z,51.89
2023-04-02T03:32:53.295Z,46.37
2023-04-02T03:33:53.262Z,49.30
2023-04-02T03:34:53.301Z,52.40
2023-04-02T03:35:53.343Z,51.99
2023-04-02T03:36:53.420Z,47.47
2023-04-02T03:37:53.397Z,42.86
2023-04-02T03:38:53.433Z,38.30
2023-04-02T03:39:53.465Z,31.50
2023-04-02T03:40:53.486Z,33.65
2023-04-02T03:41:53.536Z,27.84
2023-04-02T03:42:53.556Z,26.70
2023-04-02T03:43:53.605Z,28.46
2023-04-02T03:44:53.637Z,27.81
2023-04-02T03:45:53.667Z,28.43
2023-04-02T03:46:53.700Z,33.92
2023-04-02T03:47:53.776Z,25.00
2023-04-02T03:48:53.745Z,34.23
2023-04-02T03:49:53.784Z,25.00
2023-04-02T03:50:53.825Z,39.14
2023-04-02T03:51:53.851Z,46.63
2023-04-02T03:52:53.887Z,51.50
2023-04-02T03:53:53.912Z,57.64
2023-04-02T03:54:54.606Z,60.35
2023-04-02T03:55:53.984Z,58.81
2023-04-02T03:56:54.068Z,65.63
2023-04-02T03:57:54.064Z,70.93
2023-04-02T03:58:54.071Z,75.67
2023-04-02T03:59:54.126Z,79.82
2023-04-02T04:00:54.181Z,79.10
2023-04-02T04:01:54.231Z,79.68
2023-04-02T04:02:54.226Z,76.17
2023-04-02T04:03:54.310Z,81.15
2023-04-02T04:04:54.274Z,79.27
2023-04-02T04:05:54.326Z,80.35
2023-04-02T04:06:54.346Z,82.97
2023-04-02T04:07:54.386Z,87.51
2023-04-02T04:08:54.425Z,87.97
2023-04-02T04:09:54.449Z,91.32
2023-04-02T04:10:54.511Z,86.99
2023-04-02T04:11:54.501Z,78.97
2023-04-02T04:12:54.545Z,77.38
2023-04-02T04:13:54.571Z,83.87
2023-04-02T04:14:54.621Z,78.35
2023-04-02T04:15:54.645Z,75.95
2023-04-02T04:16:54.792Z,78.50
2023-04-02T04:17:54.721Z,77.31
2023-04-02T04:18:54.755Z,76.57
2023-04-02T04:19:54.784Z,76.50
2023-04-02T04:20:54.826Z,77.33
2023-04-02T04:21:54.845Z,86.41
2023-04-02T04:22:54.922Z,89.38
2023-04-02T04:23:54.923Z,81.15
2023-04-02T04:24:54.948Z,75.34
2023-04-02T04:25:55.006Z,67.90
2023-04-02T04:26:55.018Z,69.82
2023-04-02T04:27:55.080Z,60.93
2023-04-02T04:28:55.111Z,63.39
2023-04-02T04:29:55.138Z,56.73
2023-04-02T04:30:55.183Z,54.23
2023-04-02T04:31:55.287Z,49.60
2023-04-02T04:32:55.293Z,43.61
2023-04-02T04:33:55.282Z,44.25
2023-04-02T04:34:55.325Z,40.55
2023-04-02T04:35:55.374Z,42.38
2023-04-02T04:36:55.401Z,43.69
2023-04-02T04:37:55.422Z,43.10
2023-04-02T04:38:55.444Z,44.90
2023-04-02T04:39:55.484Z,47.71
2023-04-02T04:40:55.540Z,40.90
2023-04-02T04:41:55.557Z,41.67
2023-04-02T04:42:55.609Z,52.90
2023-04-02T04:43:55.640Z,74.01
2023-04-02T04:44:55.683Z,81.10
2023-04-02T04:45:55.785Z,86.87
2023-04-02T04:46:55.748Z,84.83
2023-04-02T04:47:55.840Z,78.64
2023-04-02T04:48:55.799Z,74.03
2023-04-02T04:49:55.832Z,79.13
2023-04-02T04:50:55.876Z,81.88
2023-04-02T04:51:55.915Z,74.27
2023-04-02T04:52:55.972Z,73.59
2023-04-02T04:53:55.979Z,69.97
2023-04-02T04:54:56.021Z,64.97
2023-04-02T04:55:58.288Z,65.93
2023-04-02T04:56:57.054Z,66.04
2023-04-02T04:57:56.026Z,65.70
2023-04-02T04:58:56.032Z,55.61
2023-04-02T04:59:56.032Z,53.65
2023-04-02T05:00:56.034Z,55.69
2023-04-02T05:01:56.106Z,59.00
2023-04-02T05:02:56.054Z,62.72
2023-04-02T05:03:55.996Z,65.11
2023-04-02T05:04:56.016Z,63.38
2023-04-02T05:05:55.977Z,62.78
2023-04-02T05:06:55.974Z,66.75
2023-04-02T05:07:56.772Z,72.92
2023-04-02T05:08:55.951Z,70.40
2023-04-02T05:09:55.989Z,67.18
2023-04-02T05:10:56.010Z,66.48
2023-04-02T05:11:56.061Z,67.49
2023-04-02T05:12:56.069Z,67.58
2023-04-02T05:13:56.119Z,66.05
2023-04-02T05:14:56.157Z,62.15
2023-04-02T05:15:56.206Z,54.69
2023-04-02T05:16:56.226Z,52.66
2023-04-02T05:17:56.304Z,55.44
2023-04-02T05:18:56.300Z,67.04
2023-04-02T05:19:56.335Z,72.43
2023-04-02T05:20:56.363Z,70.99
2023-04-02T05:21:56.408Z,68.30
2023-04-02T05:22:56.450Z,66.42
2023-04-02T05:23:56.493Z,63.81
2023-04-02T05:24:56.499Z,64.13
2023-04-02T05:25:56.530Z,56.90
2023-04-02T05:26:56.565Z,54.92
2023-04-02T05:27:56.615Z,57.13
2023-04-02T05:28:56.658Z,58.51
2023-04-02T05:29:56.776Z,54.61
2023-04-02T05:30:56.750Z,46.23
2023-04-02T05:31:56.799Z,41.18
2023-04-02T05:32:56.829Z,41.08
2023-04-02T05:33:56.826Z,29.91
2023-04-02T05:34:56.866Z,38.16
2023-04-02T05:35:56.929Z,38.56
2023-04-02T05:36:56.988Z,41.59
2023-04-02T05:37:56.985Z,47.33
2023-04-02T05:38:57.017Z,51.93
2023-04-02T05:39:57.063Z,47.96
2023-04-02T05:40:57.073Z,42.66
2023-04-02T05:41:57.148Z,38.29
2023-04-02T05:42:57.146Z,40.67
2023-04-02T05:43:57.175Z,42.38
2023-04-02T05:44:57.213Z,46.14
2023-04-02T05:45:57.264Z,44.71
2023-04-02T05:46:57.381Z,45.18
2023-04-02T05:47:57.377Z,45.87
2023-04-02T05:48:57.348Z,44.34
2023-04-02T05:49:57.382Z,51.85
2023-04-02T05:50:57.407Z,58.33
2023-04-02T05:51:57.757Z,56.97
2023-04-02T05:52:57.581Z,58.35
2023-04-02T05:53:57.527Z,62.44
2023-04-02T05:54:57.547Z,61.66
2023-04-02T05:55:57.576Z,59.82
2023-04-02T05:56:57.626Z,51.55
2023-04-02T05:58:21.229Z,48.08
2023-04-02T05:58:58.718Z,48.21
2023-04-02T05:59:57.624Z,48.57
2023-04-02T06:00:57.617Z,49.56
2023-04-02T06:01:57.630Z,52.45
2023-04-02T06:02:57.656Z,57.49
2023-04-02T06:03:57.641Z,60.73
2023-04-02T06:04:57.589Z,52.82
2023-04-02T06:05:57.585Z,54.40
2023-04-02T06:06:57.568Z,51.56
2023-04-02T06:07:57.568Z,51.15
2023-04-02T06:08:57.554Z,44.99
2023-04-02T06:09:57.545Z,47.20
2023-04-02T06:10:57.536Z,51.24
2023-04-02T06:11:57.566Z,58.04
2023-04-02T06:12:57.588Z,66.26
2023-04-02T06:13:57.613Z,67.11
2023-04-02T06:14:57.743Z,72.71
2023-04-02T06:15:57.677Z,72.79
2023-04-02T06:16:57.772Z,69.31
2023-04-02T06:17:57.756Z,81.23
2023-04-02T06:18:57.744Z,74.34
2023-04-02T06:19:57.794Z,79.23
2023-04-02T06:20:57.814Z,80.02
2023-04-02T06:21:57.822Z,77.30
2023-04-02T06:22:57.852Z,74.54
2023-04-02T06:23:57.897Z,72.43
2023-04-02T06:24:57.911Z,77.96
2023-04-02T06:25:57.935Z,75.54
2023-04-02T06:26:57.959Z,79.75
2023-04-02T06:27:57.977Z,76.31
2023-04-02T06:28:57.979Z,79.19
2023-04-02T06:29:58.000Z,76.06
2023-04-02T06:30:58.068Z,77.94
2023-04-02T06:31:58.029Z,75.66
2023-04-02T06:32:58.134Z,69.63
2023-04-02T06:33:58.056Z,67.75
2023-04-02T06:34:58.068Z,64.19
2023-04-02T06:35:58.124Z,65.41
2023-04-02T06:36:58.196Z,61.90
2023-04-02T06:37:58.117Z,61.63
2023-04-02T06:38:58.111Z,74.55
2023-04-02T06:39:58.111Z,81.08
2023-04-02T06:40:58.918Z,73.91
2023-04-02T06:41:58.117Z,76.44
2023-04-02T06:42:58.124Z,74.46
2023-04-02T06:43:58.129Z,73.15
2023-04-02T06:44:58.146Z,80.29
2023-04-02T06:45:58.191Z,75.63
2023-04-02T06:46:58.141Z,76.44
2023-04-02T06:47:58.195Z,84.70
2023-04-02T06:48:58.159Z,85.37
2023-04-02T06:49:58.153Z,81.45
2023-04-02T06:50:58.150Z,88.65
2023-04-02T06:51:58.177Z,87.95
2023-04-02T06:52:58.146Z,75.09
2023-04-02T06:53:58.144Z,75.37
2023-04-02T06:54:58.170Z,80.83
2023-04-02T06:55:58.136Z,75.12
2023-04-02T06:56:58.179Z,75.22
2023-04-02T06:57:58.236Z,79.24
2023-04-02T06:58:58.136Z,83.15
2023-04-02T06:59:58.147Z,79.93
2023-04-02T07:00:58.175Z,81.62
2023-04-02T07:01:58.205Z,85.58
2023-04-02T07:02:58.273Z,91.40
2023-04-02T07:03:58.286Z,80.02
2023-04-02T07:04:58.286Z,83.70
2023-04-02T07:05:58.276Z,87.51
2023-04-02T07:06:58.308Z,88.38
2023-04-02T07:07:58.357Z,92.83
2023-04-02T07:08:58.401Z,91.80
2023-04-02T07:09:58.448Z,95.89
2023-04-02T07:10:58.501Z,99.12
2023-04-02T07:11:58.556Z,98.89
2023-04-02T07:12:58.610Z,104.20
2023-04-02T07:13:58.664Z,93.69
2023-04-02T07:14:58.727Z,94.16
2023-04-02T07:15:58.842Z,94.28
2023-04-02T07:16:58.870Z,85.29
2023-04-02T07:17:58.962Z,83.72
2023-04-02T07:18:58.968Z,93.98
2023-04-02T07:19:59.019Z,97.88
2023-04-02T07:20:59.171Z,95.91
2023-04-02T07:21:59.169Z,91.96
2023-04-02T07:22:59.207Z,101.87
2023-04-02T07:23:59.265Z,92.76
2023-04-02T07:24:59.341Z,105.14
2023-04-02T07:25:59.397Z,107.71
2023-04-02T07:26:59.482Z,105.47
2023-04-02T07:27:59.496Z,104.28
2023-04-02T07:28:59.603Z,102.62
2023-04-02T07:29:59.647Z,109.89
2023-04-02T07:30:59.706Z,101.38
2023-04-02T07:31:59.783Z,102.80
2023-04-02T07:32:59.898Z,100.19
2023-04-02T07:33:59.940Z,106.02
2023-04-02T07:34:59.916Z,103.78
2023-04-02T07:36:00.009Z,98.92
2023-04-02T07:37:00.044Z,97.46
2023-04-02T07:38:00.112Z,98.93
2023-04-02T07:39:00.158Z,95.80
2023-04-02T07:40:00.204Z,89.31
2023-04-02T07:41:00.257Z,97.70
2023-04-02T07:42:00.327Z,93.66
2023-04-02T07:43:00.463Z,93.21
2023-04-02T07:44:00.428Z,91.47
2023-04-02T07:45:00.465Z,94.85
2023-04-02T07:46:00.537Z,91.13
2023-04-02T07:47:00.648Z,91.81
2023-04-02T07:48:00.670Z,95.95
2023-04-02T07:49:00.756Z,92.68
2023-04-02T07:50:00.764Z,91.91
2023-04-02T07:51:00.792Z,85.81
2023-04-02T07:52:00.840Z,84.42
2023-04-02T07:53:00.901Z,87.42
2023-04-02T07:54:00.999Z,88.86
2023-04-02T07:55:01.024Z,84.89
2023-04-02T07:56:01.104Z,82.63
2023-04-02T07:57:01.211Z,84.27
2023-04-02T07:58:01.206Z,88.46
2023-04-02T07:59:01.242Z,92.14
2023-04-02T08:00:01.301Z,94.32
2023-04-02T08:01:01.386Z,91.93
2023-04-02T08:02:01.494Z,86.76
2023-04-02T08:03:01.564Z,83.76
2023-04-02T08:04:01.567Z,80.36
2023-04-02T08:05:01.691Z,77.27
2023-04-02T08:06:01.649Z,80.79
2023-04-02T08:07:01.708Z,80.31
2023-04-02T08:08:01.767Z,73.03
2023-04-02T08:09:01.818Z,74.64
2023-04-02T08:10:01.869Z,77.12
2023-04-02T08:11:01.908Z,74.95
2023-04-02T08:12:01.971Z,67.55
2023-04-02T08:13:02.044Z,70.31
2023-04-02T08:14:02.111Z,69.28
2023-04-02T08:15:02.155Z,70.37
2023-04-02T08:16:02.228Z,74.91
2023-04-02T08:17:02.434Z,66.99
2023-04-02T08:18:02.389Z,62.94
2023-04-02T08:19:02.417Z,45.39
2023-04-02T08:20:02.444Z,44.88
2023-04-02T08:21:02.512Z,52.91
2023-04-02T08:22:02.564Z,52.17
2023-04-02T08:23:02.620Z,45.76
2023-04-02T08:24:02.693Z,37.01
2023-04-02T08:25:02.740Z,32.35
2023-04-02T08:26:02.775Z,36.71
2023-04-02T08:27:02.840Z,36.97
2023-04-02T08:28:03.006Z,27.31
2023-04-02T08:29:02.956Z,33.44
2023-04-02T08:30:03.022Z,43.12
2023-04-02T08:31:03.092Z,50.56
2023-04-02T08:32:03.115Z,49.90
2023-04-02T08:33:03.358Z,30.86
2023-04-02T08:34:03.255Z,29.95
2023-04-02T08:35:03.281Z,27.92
2023-04-02T08:36:03.357Z,29.06
2023-04-02T08:37:03.421Z,25.87
2023-04-02T08:38:03.436Z,30.77
2023-04-02T08:39:03.512Z,36.71
2023-04-02T08:40:03.561Z,24.21
2023-04-02T08:41:03.610Z,26.55
2023-04-02T08:42:03.650Z,41.37
2023-04-02T08:43:03.727Z,57.74
2023-04-02T08:44:03.783Z,57.25
2023-04-02T08:45:10.899Z,42.28
2023-04-02T08:46:04.867Z,42.50
2023-04-02T08:47:03.810Z,36.89
2023-04-02T08:48:03.858Z,31.75
2023-04-02T08:49:03.808Z,34.62
2023-04-02T08:50:03.874Z,31.64
2023-04-02T08:51:03.818Z,39.74
2023-04-02T08:52:03.775Z,32.82
2023-04-02T08:53:03.784Z,25.00
2023-04-02T08:54:03.793Z,29.97
2023-04-02T08:55:03.838Z,24.56
2023-04-02T08:56:03.878Z,27.85
2023-04-02T08:57:04.523Z,28.65
2023-04-02T08:58:04.012Z,27.78
2023-04-02T08:59:04.044Z,35.81
2023-04-02T09:00:04.109Z,38.31
2023-04-02T09:01:04.196Z,35.15
2023-04-02T09:02:04.281Z,32.05
2023-04-02T09:03:04.306Z,35.45
2023-04-02T09:04:04.353Z,26.34
2023-04-02T09:05:04.423Z,30.73
2023-04-02T09:06:04.460Z,37.94
2023-04-02T09:07:04.497Z,25.21
2023-04-02T09:08:04.550Z,35.77
2023-04-02T09:09:04.651Z,37.34
2023-04-02T09:10:04.688Z,41.26
2023-04-02T09:11:04.728Z,51.62
2023-04-02T09:12:04.877Z,31.39
2023-04-02T09:13:04.824Z,25.10
2023-04-02T09:14:04.917Z,50.11
2023-04-02T09:15:04.997Z,23.52
2023-04-02T09:16:05.067Z,29.73
2023-04-02T09:17:05.053Z,38.40
2023-04-02T09:18:05.134Z,48.97
2023-04-02T09:19:05.188Z,36.03
2023-04-02T09:20:05.215Z,33.48
2023-04-02T09:21:05.258Z,43.38
2023-04-02T09:22:05.326Z,33.75
2023-04-02T09:23:05.379Z,25.00
2023-04-02T09:24:05.503Z,25.00
2023-04-02T09:25:05.466Z,45.54
2023-04-02T09:26:05.532Z,33.43
2023-04-02T09:27:05.584Z,33.96
2023-04-02T09:28:05.671Z,25.00
2023-04-02T09:29:05.718Z,35.73
2023-04-02T09:30:05.752Z,39.78
2023-04-02T09:31:07.110Z,50.42
2023-04-02T09:32:05.876Z,54.23
2023-04-02T09:33:05.959Z,32.55
2023-04-02T09:34:05.993Z,42.13
2023-04-02T09:35:18.513Z,42.25
2023-04-02T09:36:07.071Z,26.70
2023-04-02T09:37:06.016Z,39.13
2023-04-02T09:38:06.003Z,17.11
2023-04-02T09:39:05.994Z,20.02
2023-04-02T09:40:05.990Z,17.44
2023-04-02T09:41:06.003Z,24.74
2023-04-02T09:42:06.137Z,20.67
2023-04-02T09:43:05.987Z,33.91
2023-04-02T09:44:05.996Z,49.09
2023-04-02T09:45:06.089Z,62.10
2023-04-02T09:46:06.106Z,65.09
2023-04-02T09:47:06.289Z,61.98
2023-04-02T09:48:06.274Z,62.11
2023-04-02T09:49:06.305Z,79.51
2023-04-02T09:50:06.342Z,75.24
2023-04-02T09:51:06.445Z,78.86
2023-04-02T09:52:06.451Z,90.61
2023-04-02T09:53:06.501Z,54.13
2023-04-02T09:54:06.561Z,29.02
2023-04-02T09:55:06.608Z,25.68
2023-04-02T09:56:06.693Z,48.39
2023-04-02T09:57:06.858Z,88.52
2023-04-02T09:58:06.776Z,87.52
2023-04-02T09:59:06.841Z,46.12
2023-04-02T10:01:06.989Z,71.45
2023-04-02T10:02:06.996Z,83.02
2023-04-02T10:03:07.137Z,91.00
2023-04-02T10:04:07.147Z,82.69
2023-04-02T10:05:07.165Z,58.45
2023-04-02T10:06:07.249Z,71.21
2023-04-02T10:07:07.302Z,75.88
2023-04-02T10:08:07.343Z,75.72
2023-04-02T10:09:07.397Z,70.52
2023-04-02T10:10:07.438Z,81.58
2023-04-02T10:11:07.500Z,67.68
2023-04-02T10:12:07.554Z,66.32
2023-04-02T10:13:07.627Z,73.21
2023-04-02T10:14:07.700Z,57.60
2023-04-02T10:15:07.761Z,53.29
2023-04-02T10:16:07.859Z,67.87
2023-04-02T10:17:07.946Z,87.32
2023-04-02T10:18:07.932Z,72.80
2023-04-02T10:19:08.067Z,69.37
2023-04-02T10:20:08.037Z,63.80
2023-04-02T10:21:08.075Z,71.73
2023-04-02T10:22:08.145Z,71.83
2023-04-02T10:23:08.195Z,76.11
2023-04-02T10:24:08.273Z,99.40
2023-04-02T10:25:08.319Z,57.02
2023-04-02T10:26:08.375Z,76.61
2023-04-02T10:27:08.427Z,71.48
2023-04-02T10:28:08.500Z,65.37
2023-04-02T10:29:08.558Z,97.00
2023-04-02T10:30:08.609Z,96.96
2023-04-02T10:31:08.690Z,92.48
2023-04-02T10:32:08.702Z,68.05
2023-04-02T10:33:08.784Z,81.36
2023-04-02T10:34:08.832Z,56.75
2023-04-02T10:35:08.890Z,75.68
2023-04-02T10:36:08.968Z,49.89
2023-04-02T10:37:08.978Z,72.72
2023-04-02T10:38:09.039Z,68.14
2023-04-02T10:39:09.108Z,74.35
2023-04-02T10:40:09.163Z,68.43
2023-04-02T10:41:09.298Z,66.12
2023-04-02T10:42:09.278Z,86.06
2023-04-02T10:43:09.324Z,80.58
2023-04-02T10:44:19.518Z,87.23
2023-04-02T10:45:10.404Z,87.28
2023-04-02T10:46:09.410Z,64.78
2023-04-02T10:47:09.367Z,70.58
2023-04-02T10:48:09.447Z,44.55
2023-04-02T10:49:09.421Z,64.05
2023-04-02T10:50:09.363Z,60.42
2023-04-02T10:51:09.333Z,37.87
2023-04-02T10:52:09.363Z,62.96
2023-04-02T10:53:09.331Z,50.72
2023-04-02T10:54:09.381Z,70.15
2023-04-02T10:55:09.427Z,78.41
2023-04-02T10:56:09.481Z,54.43
2023-04-02T10:57:09.643Z,51.31
2023-04-02T10:58:09.572Z,58.90
2023-04-02T10:59:09.620Z,56.49
2023-04-02T11:00:09.656Z,51.20
2023-04-02T11:01:09.798Z,61.83
2023-04-02T11:02:09.765Z,58.96
2023-04-02T11:03:09.893Z,47.23
2023-04-02T11:04:09.974Z,32.34
2023-04-02T11:05:09.925Z,25.74
2023-04-02T11:06:12.017Z,54.93
2023-04-02T11:07:14.397Z,69.02
2023-04-02T11:08:10.021Z,45.16
2023-04-02T11:09:10.017Z,61.40
2023-04-02T11:10:10.013Z,24.90
2023-04-02T11:11:10.020Z,36.63
2023-04-02T11:12:09.992Z,27.73
2023-04-02T11:13:09.993Z,59.25
2023-04-02T11:14:09.986Z,46.35
2023-04-02T11:15:10.000Z,69.24
2023-04-02T11:16:10.011Z,48.05
2023-04-02T11:17:09.990Z,50.31
2023-04-02T11:18:10.054Z,52.56
2023-04-02T11:19:10.111Z,24.07
2023-04-02T11:20:10.141Z,50.69
2023-04-02T11:21:10.212Z,58.49
2023-04-02T11:22:10.262Z,59.50
2023-04-02T11:23:10.337Z,58.42
2023-04-02T11:24:10.384Z,74.37
2023-04-02T11:25:10.419Z,77.68
2023-04-02T11:26:10.554Z,45.92
2023-04-02T11:27:10.529Z,51.28
2023-04-02T11:28:10.565Z,49.94
2023-04-02T11:29:10.600Z,48.26
2023-04-02T11:30:10.730Z,66.13
2023-04-02T11:31:10.751Z,61.35
2023-04-02T11:32:10.779Z,51.18
2023-04-02T11:33:10.868Z,79.61
2023-04-02T11:34:10.890Z,72.70
2023-04-02T11:35:10.930Z,40.99
2023-04-02T11:36:11.018Z,47.51
2023-04-02T11:37:11.060Z,61.16
2023-04-02T11:38:11.105Z,57.82
2023-04-02T11:39:17.324Z,51.89
2023-04-02T11:40:12.207Z,30.76
2023-04-02T11:41:11.140Z,24.45
2023-04-02T11:42:11.141Z,50.50
2023-04-02T11:43:11.111Z,50.72
2023-04-02T11:44:11.124Z,55.73
2023-04-02T11:45:11.112Z,21.18
2023-04-02T11:46:11.371Z,6.81
2023-04-02T11:47:11.098Z,87.68
2023-04-02T11:48:11.187Z,46.39
2023-04-02T11:49:11.183Z,55.68
2023-04-02T11:50:11.201Z,27.15
2023-04-02T11:51:11.259Z,46.32
2023-04-02T11:52:12.617Z,44.33
2023-04-02T11:53:11.400Z,27.83
2023-04-02T11:54:11.430Z,64.29
2023-04-02T11:55:11.484Z,44.39
2023-04-02T11:56:11.567Z,38.79
2023-04-02T11:57:11.612Z,48.48
2023-04-02T11:58:11.649Z,57.93
2023-04-02T11:59:11.719Z,63.63
2023-04-02T12:00:11.766Z,48.07
2023-04-02T12:01:11.790Z,42.85
2023-04-02T12:02:11.885Z,53.52
2023-04-02T12:03:11.937Z,52.23
2023-04-02T12:04:11.965Z,54.00
2023-04-02T12:05:12.057Z,76.61
2023-04-02T12:06:12.075Z,58.26
2023-04-02T12:07:12.129Z,74.46
2023-04-02T12:08:12.193Z,46.27
2023-04-02T12:09:12.252Z,44.65
2023-04-02T12:10:12.387Z,37.57
2023-04-02T12:11:12.355Z,51.41
2023-04-02T12:12:12.427Z,70.07
2023-04-02T12:13:12.456Z,81.61
2023-04-02T12:14:12.525Z,72.78
2023-04-02T12:15:12.574Z,70.73
2023-04-02T12:16:12.626Z,82.72
2023-04-02T12:17:12.821Z,68.55
2023-04-02T12:18:12.720Z,53.05
2023-04-02T12:19:12.766Z,56.33
2023-04-02T12:20:12.834Z,33.17
2023-04-02T12:21:12.891Z,66.54
2023-04-02T12:22:12.923Z,46.63
2023-04-02T12:23:12.993Z,52.02
2023-04-02T12:24:13.042Z,32.07
2023-04-02T12:25:13.101Z,54.48
2023-04-02T12:26:13.166Z,68.24
2023-04-02T12:27:13.209Z,53.00
2023-04-02T12:28:13.262Z,55.10
2023-04-02T12:29:13.320Z,35.06
2023-04-02T12:30:13.379Z,26.22
2023-04-02T12:31:13.497Z,58.84
2023-04-02T12:32:13.510Z,89.97
2023-04-02T12:33:13.707Z,96.41
2023-04-02T12:34:13.631Z,68.09
2023-04-02T12:35:13.662Z,69.66
2023-04-02T12:36:13.743Z,66.01
2023-04-02T12:37:13.783Z,75.50
2023-04-02T12:38:13.824Z,78.67
2023-04-02T12:39:13.889Z,66.56
2023-04-02T12:40:13.942Z,71.84
2023-04-02T12:41:14.005Z,73.08
2023-04-02T12:42:14.055Z,85.86
2023-04-02T12:43:14.108Z,58.12
2023-04-02T12:44:14.172Z,54.04
2023-04-02T12:45:14.237Z,77.10
2023-04-02T12:46:14.346Z,72.51
2023-04-02T12:47:14.336Z,82.98
2023-04-02T12:48:14.392Z,79.17
2023-04-02T12:49:14.453Z,74.25
2023-04-02T12:50:14.510Z,97.21